createdAt,value
2018-08-02T00:00:21.336Z,4.00
2018-08-02T00:01:18.520Z,4.00
2018-08-02T00:02:18.524Z,4.00
2018-08-02T00:03:18.532Z,4.00
2018-08-02T00:04:18.528Z,4.00
2018-08-02T00:05:20.370Z,4.00
2018-08-02T00:06:21.341Z,4.00
2018-08-02T00:07:18.584Z,4.00
2018-08-02T00:08:18.543Z,4.00
2018-08-02T00:09:20.324Z,4.00
2018-08-02T00:10:20.338Z,4.00
2018-08-02T00:11:18.556Z,4.00
2018-08-02T00:12:18.577Z,4.00
2018-08-02T00:13:18.597Z,4.00
2018-08-02T00:14:18.576Z,4.00
2018-08-02T00:15:18.594Z,4.00
2018-08-02T00:16:18.586Z,4.00
2018-08-02T00:17:18.636Z,4.00
2018-08-02T00:18:18.607Z,4.00
2018-08-02T00:19:19.610Z,4.00
2018-08-02T00:20:18.612Z,4.00
2018-08-02T00:21:18.622Z,4.00
2018-08-02T00:22:18.629Z,4.00
2018-08-02T00:23:18.635Z,4.00
2018-08-02T00:24:18.670Z,4.00
2018-08-02T00:25:18.666Z,4.00
2018-08-02T00:26:20.343Z,4.00
2018-08-02T00:27:22.365Z,4.00
2018-08-02T00:28:20.344Z,4.00
2018-08-02T00:29:22.332Z,4.00
2018-08-02T00:30:18.689Z,4.00
2018-08-02T00:31:22.382Z,4.00
2018-08-02T00:32:21.346Z,4.00
2018-08-02T00:33:21.336Z,4.00
2018-08-02T00:34:21.333Z,4.00
2018-08-02T00:35:18.727Z,4.00
2018-08-02T00:36:20.333Z,4.00
2018-08-02T00:37:18.744Z,4.00
2018-08-02T00:38:20.373Z,4.00
2018-08-02T00:39:20.334Z,4.00
2018-08-02T00:40:18.750Z,4.00
2018-08-02T00:41:19.748Z,4.00
2018-08-02T00:42:21.348Z,4.00
2018-08-02T00:43:20.348Z,4.00
2018-08-02T00:44:18.782Z,4.00
2018-08-02T00:45:21.356Z,4.00
2018-08-02T00:46:18.800Z,4.00
2018-08-02T00:47:20.378Z,4.00
2018-08-02T00:48:18.812Z,4.00
2018-08-02T00:49:20.347Z,4.00
2018-08-02T00:50:20.357Z,4.00
2018-08-02T00:51:20.363Z,4.00
2018-08-02T00:52:20.343Z,4.00
2018-08-02T00:53:21.343Z,4.00
2018-08-02T00:54:18.847Z,4.00
2018-08-02T00:55:22.359Z,4.00
2018-08-02T00:56:18.866Z,4.00
2018-08-02T00:57:20.364Z,4.00
2018-08-02T00:58:20.841Z,4.00
2018-08-02T00:59:18.864Z,4.00
2018-08-02T01:00:19.874Z,4.00
2018-08-02T01:01:24.872Z,4.00
2018-08-02T01:02:18.903Z,4.00
2018-08-02T01:03:20.867Z,4.00
2018-08-02T01:04:18.904Z,4.00
2018-08-02T01:05:20.883Z,4.00
2018-08-02T01:06:20.849Z,4.00
2018-08-02T01:07:21.876Z,4.00
2018-08-02T01:08:19.928Z,4.00
2018-08-02T01:09:18.924Z,4.00
2018-08-02T01:10:18.934Z,4.00
2018-08-02T01:11:22.861Z,4.00
2018-08-02T01:12:20.861Z,4.00
2018-08-02T01:13:20.846Z,4.00
2018-08-02T01:14:19.003Z,4.00
2018-08-02T01:15:21.867Z,4.00
2018-08-02T01:16:18.983Z,4.00
2018-08-02T01:17:19.014Z,4.00
2018-08-02T01:18:19.039Z,4.00
2018-08-02T01:19:20.886Z,4.00
2018-08-02T01:20:20.908Z,4.00
2018-08-02T01:21:19.007Z,4.00
2018-08-02T01:22:19.004Z,4.00
2018-08-02T01:23:19.018Z,4.00
2018-08-02T01:24:19.019Z,4.00
2018-08-02T01:25:21.859Z,4.00
2018-08-02T01:26:19.029Z,4.00
2018-08-02T01:27:19.048Z,4.00
2018-08-02T01:28:19.053Z,4.00
2018-08-02T01:29:19.071Z,4.00
2018-08-02T01:30:22.801Z,4.00
2018-08-02T01:31:22.419Z,4.00
2018-08-02T01:32:21.155Z,4.00
2018-08-02T01:33:20.824Z,4.00
2018-08-02T01:34:19.094Z,4.00
2018-08-02T01:35:27.808Z,4.00
2018-08-02T01:36:21.601Z,4.00
2018-08-02T01:37:20.951Z,4.00
2018-08-02T01:38:19.722Z,4.00
2018-08-02T01:39:23.669Z,4.00
2018-08-02T01:40:19.893Z,4.00
2018-08-02T01:41:24.826Z,4.00
2018-08-02T01:42:22.872Z,4.00
2018-08-02T01:43:19.131Z,4.00
2018-08-02T01:44:19.142Z,4.00
2018-08-02T01:45:19.148Z,4.00
2018-08-02T01:46:19.159Z,4.00
2018-08-02T01:47:19.160Z,4.00
2018-08-02T01:48:19.164Z,4.00
2018-08-02T01:49:19.173Z,4.00
2018-08-02T01:50:19.185Z,4.00
2018-08-02T01:51:19.181Z,4.00
2018-08-02T01:52:19.187Z,4.00
2018-08-02T01:53:19.205Z,4.00
2018-08-02T01:54:19.207Z,4.00
2018-08-02T01:55:19.213Z,4.00
2018-08-02T01:56:19.224Z,4.00
2018-08-02T01:57:19.213Z,4.00
2018-08-02T01:58:20.870Z,4.00
2018-08-02T01:59:20.875Z,4.00
2018-08-02T02:00:19.251Z,4.00
2018-08-02T02:01:19.241Z,4.00
2018-08-02T02:02:19.257Z,4.00
2018-08-02T02:03:19.250Z,4.00
2018-08-02T02:04:19.272Z,4.00
2018-08-02T02:05:21.866Z,4.00
2018-08-02T02:06:19.275Z,4.00
2018-08-02T02:07:19.288Z,4.00
2018-08-02T02:08:19.290Z,4.00
2018-08-02T02:09:19.306Z,4.00
2018-08-02T02:10:19.295Z,4.00
2018-08-02T02:11:21.881Z,4.00
2018-08-02T02:12:19.311Z,4.00
2018-08-02T02:13:19.320Z,4.00
2018-08-02T02:14:19.321Z,4.00
2018-08-02T02:15:19.329Z,4.00
2018-08-02T02:16:19.335Z,4.00
2018-08-02T02:17:19.334Z,4.00
2018-08-02T02:18:19.340Z,4.00
2018-08-02T02:19:19.356Z,4.00
2018-08-02T02:20:19.354Z,4.00
2018-08-02T02:21:19.370Z,4.00
2018-08-02T02:22:19.875Z,4.00
2018-08-02T02:23:19.377Z,4.00
2018-08-02T02:24:19.382Z,4.00
2018-08-02T02:25:19.392Z,4.00
2018-08-02T02:26:19.390Z,4.00
2018-08-02T02:27:19.399Z,4.00
2018-08-02T02:28:19.408Z,4.00
2018-08-02T02:29:19.411Z,4.00
2018-08-02T02:30:19.418Z,4.00
2018-08-02T02:31:19.428Z,4.00
2018-08-02T02:32:19.430Z,4.00
2018-08-02T02:33:20.408Z,4.00
2018-08-02T02:34:19.444Z,4.00
2018-08-02T02:35:19.456Z,4.00
2018-08-02T02:36:19.450Z,4.00
2018-08-02T02:37:19.473Z,4.00
2018-08-02T02:38:19.469Z,4.00
2018-08-02T02:39:19.470Z,4.00
2018-08-02T02:40:19.471Z,4.00
2018-08-02T02:41:19.477Z,4.00
2018-08-02T02:42:19.483Z,4.00
2018-08-02T02:43:19.488Z,4.00
2018-08-02T02:44:19.493Z,4.00
2018-08-02T02:45:19.506Z,4.00
2018-08-02T02:46:19.516Z,4.00
2018-08-02T02:47:19.513Z,4.00
2018-08-02T02:48:19.523Z,4.00
2018-08-02T02:49:19.523Z,4.00
2018-08-02T02:50:21.273Z,4.00
2018-08-02T02:51:24.310Z,4.00
2018-08-02T02:52:19.544Z,4.00
2018-08-02T02:53:19.555Z,4.00
2018-08-02T02:54:19.564Z,4.00
2018-08-02T02:55:19.566Z,4.00
2018-08-02T02:56:19.561Z,4.00
2018-08-02T02:57:19.574Z,4.00
2018-08-02T02:58:19.584Z,4.00
2018-08-02T02:59:19.592Z,4.00
2018-08-02T03:00:19.593Z,4.00
2018-08-02T03:01:19.620Z,4.00
2018-08-02T03:02:19.600Z,4.00
2018-08-02T03:03:19.614Z,4.00
2018-08-02T03:04:19.612Z,4.00
2018-08-02T03:05:19.619Z,4.00
2018-08-02T03:06:19.627Z,4.00
2018-08-02T03:07:19.633Z,4.00
2018-08-02T03:08:19.645Z,4.00
2018-08-02T03:09:19.641Z,4.00
2018-08-02T03:10:22.386Z,4.00
2018-08-02T03:11:19.649Z,4.00
2018-08-02T03:12:19.661Z,4.00
2018-08-02T03:13:19.765Z,4.00
2018-08-02T03:14:19.670Z,4.00
2018-08-02T03:15:19.681Z,4.00
2018-08-02T03:16:19.701Z,4.00
2018-08-02T03:17:19.697Z,4.00
2018-08-02T03:18:22.388Z,4.00
2018-08-02T03:19:19.701Z,4.00
2018-08-02T03:20:19.732Z,4.00
2018-08-02T03:21:19.708Z,8.00
2018-08-02T03:22:22.385Z,8.00
2018-08-02T03:23:19.724Z,4.00
2018-08-02T03:24:19.729Z,8.00
2018-08-02T03:25:19.745Z,8.00
2018-08-02T03:26:19.741Z,8.00
2018-08-02T03:27:19.750Z,8.00
2018-08-02T03:28:19.749Z,12.00
2018-08-02T03:29:19.770Z,12.00
2018-08-02T03:30:19.767Z,12.00
2018-08-02T03:31:19.768Z,16.00
2018-08-02T03:32:21.405Z,12.00
2018-08-02T03:33:19.780Z,16.00
2018-08-02T03:34:21.400Z,12.00
2018-08-02T03:35:19.790Z,20.00
2018-08-02T03:36:19.790Z,20.00
2018-08-02T03:37:20.811Z,20.00
2018-08-02T03:38:19.802Z,24.00
2018-08-02T03:39:19.825Z,28.00
2018-08-02T03:40:21.399Z,32.00
2018-08-02T03:41:19.827Z,32.00
2018-08-02T03:42:19.832Z,40.00
2018-08-02T03:43:19.842Z,44.00
2018-08-02T03:44:19.846Z,44.00
2018-08-02T03:45:19.849Z,52.00
2018-08-02T03:46:19.857Z,56.00
2018-08-02T03:47:19.862Z,64.00
2018-08-02T03:48:19.867Z,68.00
2018-08-02T03:49:19.877Z,76.00
2018-08-02T03:50:19.881Z,84.00
2018-08-02T03:51:19.883Z,92.00
2018-08-02T03:52:19.892Z,100.00
2018-08-02T03:53:19.886Z,108.00
2018-08-02T03:54:19.908Z,120.00
2018-08-02T03:55:19.906Z,128.00
2018-08-02T03:56:21.411Z,140.00
2018-08-02T03:57:19.927Z,148.00
2018-08-02T03:58:19.917Z,160.00
2018-08-02T03:59:19.924Z,172.00
2018-08-02T04:00:19.923Z,184.00
2018-08-02T04:01:19.935Z,196.00
2018-08-02T04:02:19.938Z,212.00
2018-08-02T04:03:19.945Z,224.00
2018-08-02T04:04:19.953Z,240.00
2018-08-02T04:05:19.958Z,256.00
2018-08-02T04:06:19.963Z,276.00
2018-08-02T04:07:20.001Z,296.00
2018-08-02T04:08:19.979Z,316.00
2018-08-02T04:09:19.973Z,340.00
2018-08-02T04:10:19.982Z,364.00
2018-08-02T04:11:19.988Z,384.00
2018-08-02T04:12:19.997Z,404.00
2018-08-02T04:13:19.992Z,424.00
2018-08-02T04:14:20.005Z,440.00
2018-08-02T04:15:20.011Z,460.00
2018-08-02T04:16:20.022Z,476.00
2018-08-02T04:17:20.021Z,496.00
2018-08-02T04:18:20.023Z,516.00
2018-08-02T04:19:20.034Z,540.00
2018-08-02T04:20:20.029Z,564.00
2018-08-02T04:21:20.038Z,584.00
2018-08-02T04:22:20.046Z,608.00
2018-08-02T04:23:20.055Z,628.00
2018-08-02T04:24:20.060Z,648.00
2018-08-02T04:25:20.062Z,668.00
2018-08-02T04:26:20.079Z,688.00
2018-08-02T04:27:20.073Z,712.00
2018-08-02T04:28:20.080Z,740.00
2018-08-02T04:29:20.091Z,764.00
2018-08-02T04:30:20.089Z,792.00
2018-08-02T04:31:20.099Z,820.00
2018-08-02T04:32:20.106Z,852.00
2018-08-02T04:33:20.118Z,880.00
2018-08-02T04:34:20.121Z,904.00
2018-08-02T04:35:20.119Z,920.00
2018-08-02T04:36:20.122Z,928.00
2018-08-02T04:37:20.133Z,948.00
2018-08-02T04:38:20.141Z,960.00
2018-08-02T04:39:20.140Z,988.00
2018-08-02T04:40:20.150Z,1032.00
2018-08-02T04:41:20.151Z,1084.00
2018-08-02T04:42:20.162Z,1152.00
2018-08-02T04:43:20.172Z,1232.00
2018-08-02T04:44:20.170Z,1304.00
2018-08-02T04:45:20.188Z,1376.00
2018-08-02T04:46:20.188Z,1444.00
2018-08-02T04:47:20.192Z,1492.00
2018-08-02T04:48:20.201Z,1548.00
2018-08-02T04:49:20.203Z,1616.00
2018-08-02T04:50:20.208Z,1676.00
2018-08-02T04:51:20.237Z,1740.00
2018-08-02T04:52:20.255Z,1812.00
2018-08-02T04:53:20.240Z,1876.00
2018-08-02T04:54:20.229Z,1952.00
2018-08-02T04:55:20.252Z,2020.00
2018-08-02T04:56:20.253Z,2088.00
2018-08-02T04:57:20.248Z,2140.00
2018-08-02T04:58:20.251Z,2180.00
2018-08-02T04:59:20.269Z,2208.00
2018-08-02T05:00:20.269Z,2252.00
2018-08-02T05:01:20.293Z,2288.00
2018-08-02T05:02:20.277Z,2332.00
2018-08-02T05:03:20.289Z,2360.00
2018-08-02T05:04:20.294Z,2380.00
2018-08-02T05:05:20.303Z,2412.00
2018-08-02T05:06:20.307Z,2408.00
2018-08-02T05:07:20.319Z,2412.00
2018-08-02T05:08:20.323Z,2440.00
2018-08-02T05:09:20.323Z,2484.00
2018-08-02T05:10:20.337Z,2528.00
2018-08-02T05:11:20.346Z,2576.00
2018-08-02T05:12:20.348Z,2628.00
2018-08-02T05:13:20.369Z,2672.00
2018-08-02T05:14:20.367Z,2732.00
2018-08-02T05:15:20.375Z,2784.00
2018-08-02T05:16:20.378Z,2844.00
2018-08-02T05:17:20.500Z,2892.00
2018-08-02T05:18:20.431Z,2944.00
2018-08-02T05:19:20.418Z,3000.00
2018-08-02T05:20:20.461Z,3040.00
2018-08-02T05:21:20.432Z,3116.00
2018-08-02T05:22:20.482Z,3120.00
2018-08-02T05:23:20.429Z,3172.00
2018-08-02T05:24:20.419Z,3188.00
2018-08-02T05:25:20.421Z,3236.00
2018-08-02T05:26:20.493Z,3280.00
2018-08-02T05:27:20.441Z,3324.00
2018-08-02T05:28:20.449Z,3368.00
2018-08-02T05:29:20.448Z,3416.00
2018-08-02T05:30:20.481Z,3432.00
2018-08-02T05:31:20.462Z,3464.00
2018-08-02T05:32:20.497Z,3488.00
2018-08-02T05:33:20.494Z,3576.00
2018-08-02T05:34:20.640Z,3616.00
2018-08-02T05:35:20.660Z,3688.00
2018-08-02T05:36:20.984Z,3768.00
2018-08-02T05:37:20.500Z,3936.00
2018-08-02T05:38:20.515Z,5972.00
2018-08-02T05:39:20.522Z,8880.00
2018-08-02T05:40:20.521Z,10832.00
2018-08-02T05:41:20.525Z,11112.00
2018-08-02T05:42:20.543Z,11324.00
2018-08-02T05:43:20.544Z,11400.00
2018-08-02T05:44:20.552Z,11508.00
2018-08-02T05:45:20.557Z,11704.00
2018-08-02T05:46:20.562Z,11872.00
2018-08-02T05:47:20.575Z,11992.00
2018-08-02T05:48:20.581Z,12080.00
2018-08-02T05:49:20.591Z,12256.00
2018-08-02T05:50:20.622Z,12508.00
2018-08-02T05:51:20.612Z,12572.00
2018-08-02T05:52:20.621Z,12444.00
2018-08-02T05:53:20.633Z,12960.00
2018-08-02T05:54:20.652Z,13088.00
2018-08-02T05:55:20.655Z,13088.00
2018-08-02T05:56:20.662Z,13312.00
2018-08-02T05:57:20.667Z,13472.00
2018-08-02T05:58:20.675Z,13696.00
2018-08-02T05:59:20.689Z,13952.00
2018-08-02T06:00:20.695Z,14048.00
2018-08-02T06:01:20.753Z,14112.00
2018-08-02T06:02:20.717Z,14304.00
2018-08-02T06:03:20.733Z,14496.00
2018-08-02T06:04:20.738Z,14752.00
2018-08-02T06:05:20.810Z,14880.00
2018-08-02T06:06:20.766Z,15008.00
2018-08-02T06:07:20.771Z,15200.00
2018-08-02T06:08:20.784Z,15488.00
2018-08-02T06:09:20.796Z,15744.00
2018-08-02T06:10:20.827Z,16032.00
2018-08-02T06:11:20.822Z,16288.00
2018-08-02T06:12:20.835Z,16352.00
2018-08-02T06:13:20.841Z,16480.00
2018-08-02T06:14:20.856Z,16544.00
2018-08-02T06:15:20.871Z,16800.00
2018-08-02T06:16:20.881Z,16928.00
2018-08-02T06:17:20.963Z,16864.00
2018-08-02T06:18:20.908Z,16864.00
2018-08-02T06:19:21.001Z,17024.00
2018-08-02T06:20:20.940Z,17344.00
2018-08-02T06:21:20.947Z,17472.00
2018-08-02T06:22:20.965Z,17696.00
2018-08-02T06:23:20.968Z,18016.00
2018-08-02T06:24:20.983Z,18432.00
2018-08-02T06:25:21.007Z,18784.00
2018-08-02T06:26:21.022Z,19104.00
2018-08-02T06:27:21.027Z,28832.00
2018-08-02T06:28:21.046Z,19200.00
2018-08-02T06:29:21.056Z,19360.00
2018-08-02T06:30:21.110Z,19520.00
2018-08-02T06:31:21.080Z,19488.00
2018-08-02T06:32:21.099Z,19296.00
2018-08-02T06:33:21.160Z,19040.00
2018-08-02T06:34:21.132Z,18592.00
2018-08-02T06:35:21.169Z,19936.00
2018-08-02T06:36:21.155Z,20256.00
2018-08-02T06:37:21.165Z,20736.00
2018-08-02T06:38:21.195Z,21120.00
2018-08-02T06:39:21.192Z,21120.00
2018-08-02T06:40:21.209Z,20416.00
2018-08-02T06:41:21.227Z,20608.00
2018-08-02T06:42:21.241Z,20736.00
2018-08-02T06:43:21.260Z,20768.00
2018-08-02T06:44:21.278Z,20832.00
2018-08-02T06:45:21.291Z,20448.00
2018-08-02T06:46:21.307Z,21248.00
2018-08-02T06:47:21.325Z,21824.00
2018-08-02T06:48:21.335Z,21344.00
2018-08-02T06:49:21.347Z,21184.00
2018-08-02T06:50:21.367Z,21120.00
2018-08-02T06:51:21.380Z,21344.00
2018-08-02T06:52:21.396Z,21664.00
2018-08-02T06:53:21.419Z,23008.00
2018-08-02T06:54:21.427Z,22720.00
2018-08-02T06:55:21.437Z,22880.00
2018-08-02T06:56:21.460Z,22944.00
2018-08-02T06:57:21.471Z,23296.00
2018-08-02T06:58:21.500Z,23456.00
2018-08-02T06:59:22.479Z,22528.00
2018-08-02T07:00:21.521Z,23392.00
2018-08-02T07:01:21.535Z,22240.00
2018-08-02T07:02:21.550Z,23488.00
2018-08-02T07:03:21.575Z,23360.00
2018-08-02T07:04:21.592Z,23136.00
2018-08-02T07:05:21.607Z,21216.00
2018-08-02T07:06:21.627Z,23360.00
2018-08-02T07:07:21.641Z,23264.00
2018-08-02T07:08:21.711Z,24128.00
2018-08-02T07:09:21.670Z,24256.00
2018-08-02T07:10:21.697Z,24384.00
2018-08-02T07:11:21.712Z,24384.00
2018-08-02T07:12:21.760Z,24416.00
2018-08-02T07:13:21.753Z,24448.00
2018-08-02T07:14:21.763Z,24448.00
2018-08-02T07:15:21.784Z,24224.00
2018-08-02T07:16:21.801Z,24576.00
2018-08-02T07:17:21.823Z,24320.00
2018-08-02T07:18:21.852Z,24448.00
2018-08-02T07:19:21.854Z,24320.00
2018-08-02T07:20:21.873Z,24800.00
2018-08-02T07:21:21.893Z,24576.00
2018-08-02T07:22:21.915Z,23776.00
2018-08-02T07:23:21.934Z,21696.00
2018-08-02T07:24:21.944Z,20768.00
2018-08-02T07:25:21.975Z,20672.00
2018-08-02T07:26:21.987Z,20608.00
2018-08-02T07:27:22.011Z,20768.00
2018-08-02T07:28:22.025Z,20896.00
2018-08-02T07:29:22.991Z,19744.00
2018-08-02T07:30:22.058Z,21824.00
2018-08-02T07:31:22.086Z,22208.00
2018-08-02T07:32:22.101Z,23072.00
2018-08-02T07:33:22.134Z,22208.00
2018-08-02T07:34:22.136Z,22400.00
2018-08-02T07:35:22.152Z,22496.00
2018-08-02T07:36:22.190Z,22624.00
2018-08-02T07:37:22.188Z,22016.00
2018-08-02T07:38:22.211Z,24128.00
2018-08-02T07:39:22.231Z,25824.00
2018-08-02T07:40:22.255Z,26272.00
2018-08-02T07:41:22.262Z,25792.00
2018-08-02T07:42:22.288Z,25728.00
2018-08-02T07:43:22.371Z,25024.00
2018-08-02T07:44:22.334Z,25152.00
2018-08-02T07:45:22.345Z,24608.00
2018-08-02T07:46:22.360Z,24832.00
2018-08-02T07:47:22.381Z,24192.00
2018-08-02T07:48:22.400Z,24576.00
2018-08-02T07:49:22.416Z,24224.00
2018-08-02T07:50:22.998Z,24768.00
2018-08-02T07:51:22.457Z,25312.00
2018-08-02T07:52:22.478Z,25728.00
2018-08-02T07:53:22.514Z,24832.00
2018-08-02T07:54:22.515Z,25632.00
2018-08-02T07:55:22.536Z,25952.00
2018-08-02T07:56:22.558Z,25568.00
2018-08-02T07:57:22.578Z,26144.00
2018-08-02T07:58:22.589Z,26976.00
2018-08-02T07:59:22.632Z,27232.00
2018-08-02T08:00:22.636Z,26176.00
2018-08-02T08:01:22.661Z,25920.00
2018-08-02T08:02:22.672Z,24416.00
2018-08-02T08:03:22.689Z,25376.00
2018-08-02T08:04:22.727Z,25824.00
2018-08-02T08:05:22.728Z,25952.00
2018-08-02T08:06:22.753Z,25600.00
2018-08-02T08:07:22.779Z,25376.00
2018-08-02T08:08:22.800Z,24864.00
2018-08-02T08:09:22.820Z,25888.00
2018-08-02T08:10:22.837Z,26016.00
2018-08-02T08:11:22.872Z,26368.00
2018-08-02T08:12:22.885Z,26464.00
2018-08-02T08:13:22.895Z,26336.00
2018-08-02T08:14:22.920Z,25696.00
2018-08-02T08:15:22.959Z,26016.00
2018-08-02T08:16:22.986Z,26688.00
2018-08-02T08:17:22.984Z,27104.00
2018-08-02T08:18:23.005Z,27200.00
2018-08-02T08:19:24.008Z,26912.00
2018-08-02T08:20:23.068Z,26752.00
2018-08-02T08:21:23.069Z,26656.00
2018-08-02T08:22:23.084Z,26272.00
2018-08-02T08:23:23.109Z,26240.00
2018-08-02T08:24:23.126Z,26016.00
2018-08-02T08:25:23.150Z,25824.00
2018-08-02T08:26:23.166Z,25536.00
2018-08-02T08:27:23.195Z,25792.00
2018-08-02T08:28:23.212Z,25760.00
2018-08-02T08:29:23.303Z,25344.00
2018-08-02T08:30:23.359Z,25056.00
2018-08-02T08:31:23.276Z,25088.00
2018-08-02T08:32:23.325Z,25024.00
2018-08-02T08:33:23.320Z,24672.00
2018-08-02T08:34:23.346Z,24992.00
2018-08-02T08:35:23.371Z,25152.00
2018-08-02T08:36:23.391Z,25120.00
2018-08-02T08:37:24.473Z,24704.00
2018-08-02T08:38:23.433Z,25760.00
2018-08-02T08:39:23.480Z,25184.00
2018-08-02T08:40:23.477Z,25600.00
2018-08-02T08:41:23.497Z,25376.00
2018-08-02T08:42:23.520Z,25632.00
2018-08-02T08:43:23.658Z,26400.00
2018-08-02T08:44:23.580Z,26624.00
2018-08-02T08:45:23.586Z,26528.00
2018-08-02T08:46:23.656Z,25248.00
2018-08-02T08:47:23.730Z,24672.00
2018-08-02T08:48:23.660Z,24640.00
2018-08-02T08:49:23.676Z,24736.00
2018-08-02T08:50:23.721Z,24672.00
2018-08-02T08:51:23.727Z,24832.00
2018-08-02T08:52:23.958Z,24224.00
2018-08-02T08:53:23.774Z,24032.00
2018-08-02T08:54:23.838Z,24064.00
2018-08-02T08:55:23.822Z,24128.00
2018-08-02T08:56:23.917Z,24096.00
2018-08-02T08:57:23.867Z,24096.00
2018-08-02T08:58:23.886Z,24000.00
2018-08-02T08:59:23.967Z,24224.00
2018-08-02T09:00:23.938Z,24064.00
2018-08-02T09:01:23.957Z,23904.00
2018-08-02T09:02:23.989Z,23776.00
2018-08-02T09:03:24.054Z,23808.00
2018-08-02T09:04:24.027Z,23776.00
2018-08-02T09:05:24.056Z,23776.00
2018-08-02T09:06:24.082Z,23680.00
2018-08-02T09:07:24.097Z,23712.00
2018-08-02T09:08:24.126Z,23456.00
2018-08-02T09:09:24.155Z,23008.00
2018-08-02T09:10:24.183Z,22720.00
2018-08-02T09:11:24.200Z,22176.00
2018-08-02T09:12:24.225Z,21536.00
2018-08-02T09:13:24.239Z,21216.00
2018-08-02T09:14:24.270Z,20992.00
2018-08-02T09:15:24.285Z,20416.00
2018-08-02T09:16:24.312Z,20224.00
2018-08-02T09:17:24.394Z,19872.00
2018-08-02T09:18:24.366Z,20128.00
2018-08-02T09:19:24.389Z,20128.00
2018-08-02T09:20:24.409Z,19904.00
2018-08-02T09:21:24.424Z,20224.00
2018-08-02T09:22:24.449Z,20352.00
2018-08-02T09:23:24.481Z,20224.00
2018-08-02T09:24:24.498Z,20192.00
2018-08-02T09:25:24.539Z,20288.00
2018-08-02T09:26:24.551Z,20448.00
2018-08-02T09:27:24.570Z,20352.00
2018-08-02T09:28:24.603Z,20608.00
2018-08-02T09:29:24.616Z,20800.00
2018-08-02T09:30:24.639Z,20992.00
2018-08-02T09:31:24.680Z,21248.00
2018-08-02T09:32:24.768Z,21184.00
2018-08-02T09:33:24.721Z,21120.00
2018-08-02T09:34:24.734Z,21184.00
2018-08-02T09:35:24.766Z,21120.00
2018-08-02T09:36:24.780Z,20928.00
2018-08-02T09:37:24.820Z,20992.00
2018-08-02T09:38:24.831Z,20800.00
2018-08-02T09:39:24.862Z,20768.00
2018-08-02T09:40:24.892Z,20800.00
2018-08-02T09:41:24.911Z,20448.00
2018-08-02T09:42:24.924Z,20480.00
2018-08-02T09:43:24.956Z,20288.00
2018-08-02T09:44:24.987Z,20096.00
2018-08-02T09:45:25.000Z,20256.00
2018-08-02T09:46:25.033Z,20288.00
2018-08-02T09:47:25.049Z,20352.00
2018-08-02T09:48:25.072Z,20416.00
2018-08-02T09:49:25.095Z,20096.00
2018-08-02T09:50:25.115Z,20256.00
2018-08-02T09:51:25.140Z,20128.00
2018-08-02T09:52:25.167Z,19936.00
2018-08-02T09:53:25.183Z,20064.00
2018-08-02T09:54:25.206Z,20064.00
2018-08-02T09:55:25.242Z,19872.00
2018-08-02T09:56:25.261Z,19936.00
2018-08-02T09:57:25.280Z,19456.00
2018-08-02T09:58:25.301Z,19744.00
2018-08-02T09:59:25.333Z,19840.00
2018-08-02T10:00:25.354Z,19808.00
2018-08-02T10:01:25.369Z,19552.00
2018-08-02T10:02:25.395Z,19424.00
2018-08-02T10:03:25.426Z,19456.00
2018-08-02T10:04:25.448Z,19264.00
2018-08-02T10:05:25.514Z,19456.00
2018-08-02T10:06:25.491Z,19200.00
2018-08-02T10:07:25.518Z,18912.00
2018-08-02T10:08:25.538Z,19264.00
2018-08-02T10:09:25.592Z,19200.00
2018-08-02T10:10:25.632Z,19232.00
2018-08-02T10:11:25.611Z,19360.00
2018-08-02T10:12:25.635Z,19392.00
2018-08-02T10:13:25.656Z,19264.00
2018-08-02T10:14:25.726Z,19392.00
2018-08-02T10:15:25.712Z,19264.00
2018-08-02T10:16:25.731Z,19520.00
2018-08-02T10:17:25.751Z,19520.00
2018-08-02T10:18:25.827Z,19296.00
2018-08-02T10:19:25.841Z,19296.00
2018-08-02T10:20:25.897Z,18976.00
2018-08-02T10:21:25.882Z,19040.00
2018-08-02T10:22:25.883Z,19232.00
2018-08-02T10:23:25.970Z,19104.00
2018-08-02T10:24:25.966Z,19200.00
2018-08-02T10:25:26.010Z,19232.00
2018-08-02T10:26:25.952Z,19200.00
2018-08-02T10:27:25.984Z,19168.00
2018-08-02T10:28:26.020Z,19136.00
2018-08-02T10:29:26.032Z,19296.00
2018-08-02T10:30:26.067Z,19328.00
2018-08-02T10:31:26.071Z,19168.00
2018-08-02T10:32:26.097Z,18976.00
2018-08-02T10:33:26.119Z,19136.00
2018-08-02T10:34:26.135Z,18976.00
2018-08-02T10:35:26.165Z,19072.00
2018-08-02T10:36:26.180Z,19008.00
2018-08-02T10:37:26.302Z,19104.00
2018-08-02T10:38:26.232Z,18976.00
2018-08-02T10:39:26.254Z,18816.00
2018-08-02T10:40:26.276Z,18688.00
2018-08-02T10:41:26.296Z,18720.00
2018-08-02T10:42:26.326Z,18560.00
2018-08-02T10:43:26.340Z,18528.00
2018-08-02T10:44:26.370Z,18656.00
2018-08-02T10:45:26.385Z,18464.00
2018-08-02T10:46:26.417Z,18432.00
2018-08-02T10:47:26.436Z,18112.00
2018-08-02T10:48:26.465Z,18144.00
2018-08-02T10:49:26.482Z,18048.00
2018-08-02T10:50:26.509Z,18080.00
2018-08-02T10:51:26.524Z,17696.00
2018-08-02T10:52:26.550Z,17920.00
2018-08-02T10:53:26.567Z,17888.00
2018-08-02T10:54:26.589Z,17888.00
2018-08-02T10:55:26.620Z,17824.00
2018-08-02T10:56:26.637Z,17696.00
2018-08-02T10:57:26.663Z,17536.00
2018-08-02T10:58:26.681Z,17312.00
2018-08-02T10:59:26.705Z,17408.00
2018-08-02T11:00:26.734Z,17248.00
2018-08-02T11:01:26.839Z,17088.00
2018-08-02T11:02:26.769Z,16960.00
2018-08-02T11:03:26.802Z,16800.00
2018-08-02T11:04:26.812Z,16640.00
2018-08-02T11:05:26.839Z,16640.00
2018-08-02T11:06:26.866Z,16512.00
2018-08-02T11:07:26.877Z,16236.00
2018-08-02T11:08:26.901Z,16292.00
2018-08-02T11:09:26.940Z,16272.00
2018-08-02T11:10:26.953Z,16216.00
2018-08-02T11:11:26.977Z,16048.00
2018-08-02T11:12:26.992Z,16132.00
2018-08-02T11:13:27.019Z,16004.00
2018-08-02T11:14:27.030Z,16000.00
2018-08-02T11:15:27.062Z,15868.00
2018-08-02T11:16:27.075Z,15752.00
2018-08-02T11:17:27.109Z,15740.00
2018-08-02T11:18:27.125Z,15760.00
2018-08-02T11:19:27.137Z,15836.00
2018-08-02T11:20:27.170Z,15676.00
2018-08-02T11:21:27.227Z,15596.00
2018-08-02T11:22:27.209Z,15520.00
2018-08-02T11:23:27.230Z,15512.00
2018-08-02T11:24:27.272Z,15584.00
2018-08-02T11:25:27.276Z,15612.00
2018-08-02T11:26:27.298Z,15596.00
2018-08-02T11:27:27.322Z,15620.00
2018-08-02T11:28:27.465Z,15620.00
2018-08-02T11:29:27.352Z,15636.00
2018-08-02T11:30:27.381Z,15432.00
2018-08-02T11:31:27.393Z,15256.00
2018-08-02T11:32:27.420Z,15392.00
2018-08-02T11:33:27.437Z,15416.00
2018-08-02T11:34:27.456Z,15416.00
2018-08-02T11:35:27.490Z,15412.00
2018-08-02T11:36:27.503Z,15476.00
2018-08-02T11:37:27.545Z,15244.00
2018-08-02T11:38:27.540Z,14964.00
2018-08-02T11:39:27.557Z,14804.00
2018-08-02T11:40:27.592Z,14700.00
2018-08-02T11:41:27.600Z,14720.00
2018-08-02T11:42:27.629Z,14608.00
2018-08-02T11:43:27.644Z,14500.00
2018-08-02T11:44:27.668Z,14436.00
2018-08-02T11:45:27.688Z,14384.00
2018-08-02T11:46:27.705Z,14072.00
2018-08-02T11:47:27.781Z,14296.00
2018-08-02T11:48:27.745Z,14244.00
2018-08-02T11:49:27.776Z,14112.00
2018-08-02T11:50:27.788Z,14120.00
2018-08-02T11:51:27.798Z,14164.00
2018-08-02T11:52:27.833Z,13920.00
2018-08-02T11:53:27.846Z,13496.00
2018-08-02T11:54:27.865Z,13652.00
2018-08-02T11:55:27.889Z,13748.00
2018-08-02T11:56:27.999Z,13684.00
2018-08-02T11:57:28.055Z,13776.00
2018-08-02T11:58:27.940Z,13780.00
2018-08-02T11:59:27.965Z,13784.00
2018-08-02T12:00:27.982Z,13096.00
2018-08-02T12:01:28.001Z,10548.00
2018-08-02T12:02:28.021Z,7984.00
2018-08-02T12:03:28.041Z,7400.00
2018-08-02T12:04:28.090Z,7328.00
2018-08-02T12:05:28.091Z,7352.00
2018-08-02T12:06:28.101Z,7324.00
2018-08-02T12:07:28.113Z,7296.00
2018-08-02T12:08:28.138Z,7320.00
2018-08-02T12:09:28.177Z,7332.00
2018-08-02T12:10:28.173Z,7372.00
2018-08-02T12:11:28.189Z,7236.00
2018-08-02T12:12:28.211Z,7148.00
2018-08-02T12:13:28.218Z,7120.00
2018-08-02T12:14:28.240Z,7024.00
2018-08-02T12:15:28.259Z,7032.00
2018-08-02T12:16:28.377Z,7016.00